Time;durP1;ratioP1;P1;durP2;ratioP2;P2;SDS_P1;SDS_P2;PMS_P1;PMS_P2;Temp;Humidity;BMP_temperature;BMP_pressure;BME280_temperature;BME280_humidity;BME280_pressure;Samples;Min_cycle;Max_cycle;Signal;HPM_P1;HPM_P2
2022/07/30 00:00:17;;;;;;;3.30;2.40;;;;;;;;;;5093056;28;20966;-73
2022/07/30 00:02:44;;;;;;;3.40;2.63;;;;;;;;;;5091447;28;20456;-73
2022/07/30 00:05:11;;;;;;;2.63;2.43;;;;;;;;;;5094398;28;20446;-74
2022/07/30 00:07:39;;;;;;;4.30;2.60;;;;;;;;;;5092859;28;20504;-73
2022/07/30 00:10:07;;;;;;;3.03;2.73;;;;;;;;;;5092096;28;20463;-72
2022/07/30 00:12:35;;;;;;;2.70;2.20;;;;;;;;;;5093635;28;20449;-73
2022/07/30 00:15:02;;;;;;;2.83;2.53;;;;;;;;;;5093270;28;20467;-73
2022/07/30 00:17:29;;;;;;;3.73;2.53;;;;;;;;;;5093145;28;20973;-73
2022/07/30 00:19:56;;;;;;;2.90;2.37;;;;;;;;;;5092534;28;20500;-73
2022/07/30 00:22:23;;;;;;;3.20;2.90;;;;;;;;;;5092756;28;20448;-72
2022/07/30 00:24:52;;;;;;;2.40;2.20;;;;;;;;;;5093056;28;20441;-73
2022/07/30 00:27:19;;;;;;;2.30;2.10;;;;;;;;;;5093366;28;20472;-73
2022/07/30 00:29:46;;;;;;;2.97;2.77;;;;;;;;;;5085397;28;20449;-73
2022/07/30 00:32:13;;;;;;;2.80;2.43;;;;;;;;;;5093583;28;20448;-74
2022/07/30 00:34:40;;;;;;;2.93;2.63;;;;;;;;;;5093901;28;20473;-74
2022/07/30 00:37:07;;;;;;;3.00;2.70;;;;;;;;;;5097917;28;20449;-73
2022/07/30 00:39:35;;;;;;;3.60;3.13;;;;;;;;;;5094375;28;20502;-69
2022/07/30 00:42:04;;;;;;;2.93;2.60;;;;;;;;;;5102949;28;20449;-74
2022/07/30 00:44:31;;;;;;;4.60;2.50;;;;;;;;;;5113707;28;20432;-71
2022/07/30 00:46:58;;;;;;;3.20;2.83;;;;;;;;;;5109707;28;20445;-74
2022/07/30 00:49:26;;;;;;;2.80;2.27;;;;;;;;;;5084019;28;20443;-73
2022/07/30 00:51:53;;;;;;;3.27;2.50;;;;;;;;;;5093053;28;20445;-73
2022/07/30 00:54:21;;;;;;;3.83;3.37;;;;;;;;;;5093100;28;20808;-73
2022/07/30 00:56:48;;;;;;;3.03;2.70;;;;;;;;;;5092236;28;20448;-73
2022/07/30 00:59:17;;;;;;;3.53;2.70;;;;;;;;;;5092108;28;20448;-73
2022/07/30 01:01:44;;;;;;;5.30;2.80;;;;;;;;;;5091685;28;20943;-73
2022/07/30 01:04:11;;;;;;;3.63;2.70;;;;;;;;;;5092641;28;20471;-72
2022/07/30 01:06:39;;;;;;;2.70;2.50;;;;;;;;;;5092411;28;20451;-73
2022/07/30 01:09:06;;;;;;;3.07;2.87;;;;;;;;;;5091652;28;20484;-72
2022/07/30 01:11:36;;;;;;;3.90;2.73;;;;;;;;;;5092353;28;20599;-73
2022/07/30 01:14:04;;;;;;;3.33;3.03;;;;;;;;;;5092079;28;21027;-74
2022/07/30 01:16:33;;;;;;;2.97;2.40;;;;;;;;;;5092116;28;20531;-73
2022/07/30 01:21:47;;;;;;;2.73;2.30;;;;;;;;;;5091875;28;20463;-73
2022/07/30 01:24:21;;;;;;;3.27;3.07;;;;;;;;;;5091942;28;20448;-73
2022/07/30 01:26:50;;;;;;;3.40;2.50;;;19.90;99.90;;;;;;5091383;28;20448;-73
2022/07/30 01:29:18;;;;;;;3.17;2.50;;;17.50;99.90;;;;;;5091381;28;20574;-72
2022/07/30 01:31:47;;;;;;;3.07;2.73;;;17.30;99.90;;;;;;5090005;28;20803;-72
2022/07/30 01:34:16;;;;;;;2.50;2.30;;;17.20;99.90;;;;;;5091671;28;20484;-72
2022/07/30 01:36:45;;;;;;;3.60;2.70;;;17.20;99.90;;;;;;5094245;28;20441;-72
2022/07/30 01:39:13;;;;;;;3.93;3.13;;;;;;;;;;5091446;28;20449;-72
2022/07/30 01:41:42;;;;;;;5.30;2.47;;;;;;;;;;5091059;28;20449;-73
2022/07/30 01:44:12;;;;;;;3.90;3.60;;;;;;;;;;5091884;28;20539;-72
2022/07/30 01:46:40;;;;;;;3.30;3.00;;;;;;;;;;5083552;28;20441;-73
2022/07/30 01:49:08;;;;;;;2.60;2.40;;;;;;;;;;5091347;28;20600;-72
2022/07/30 01:51:35;;;;;;;4.40;3.27;;;;;;;;;;5090921;28;20445;-69
2022/07/30 01:54:02;;;;;;;3.10;2.80;;;;;;;;;;5091774;28;20448;-73
2022/07/30 01:56:31;;;;;;;3.70;3.13;;;;;;;;;;5091436;28;20535;-73
2022/07/30 01:58:59;;;;;;;3.20;2.77;;;;;;;;;;5090896;28;20460;-72
2022/07/30 02:01:27;;;;;;;5.50;3.10;;;;;;;;;;5091360;28;20816;-73
2022/07/30 02:03:55;;;;;;;2.37;2.17;;;;;;;;;;5091154;28;20821;-72
2022/07/30 02:06:24;;;;;;;3.10;2.73;;;;;;;;;;5093975;28;20453;-72
2022/07/30 02:08:53;;;;;;;4.87;2.60;;;;;;;;;;5090265;28;20835;-72
2022/07/30 02:14:03;;;;;;;3.60;3.07;;;;;;;;;;5082415;28;20959;-72
2022/07/30 02:16:32;;;;;;;3.80;2.50;;;;;;;;;;5091357;28;20441;-72
2022/07/30 02:19:05;;;;;;;3.90;3.20;;;;;;;;;;5090191;28;20798;-72
2022/07/30 02:21:34;;;;;;;4.63;3.60;;;;;;;;;;5090962;28;20455;-73
2022/07/30 02:24:03;;;;;;;2.77;2.57;;;;;;;;;;5091540;28;20797;-72
2022/07/30 02:26:30;;;;;;;3.50;3.03;;;;;;;;;;5091840;28;20560;-73
2022/07/30 02:29:00;;;;;;;3.33;3.03;;;;;;;;;;5090082;28;20523;-72
2022/07/30 02:31:28;;;;;;;3.43;3.13;;;;;;;;;;5077995;28;20463;-72
2022/07/30 02:33:58;;;;;;;3.10;2.83;;;;;;;;;;5090346;28;20792;-72
2022/07/30 02:36:27;;;;;;;3.90;2.73;;;;;;;;;;5090912;28;20484;-72
2022/07/30 02:38:56;;;;;;;3.13;2.83;;;17.10;99.90;;;;;;5090281;28;20466;-72
2022/07/30 02:41:24;;;;;;;3.43;3.13;;;16.40;99.90;;;;;;5090730;28;20457;-72
2022/07/30 02:43:52;;;;;;;3.80;3.13;;;16.30;99.90;;;;;;5090372;28;20451;-71
2022/07/30 02:46:21;;;;;;;3.80;3.17;;;16.20;99.90;;;;;;5091262;28;20441;-72
2022/07/30 02:48:50;;;;;;;4.07;3.77;;;16.30;99.90;;;;;;5089669;28;20483;-71
2022/07/30 02:51:20;;;;;;;3.73;2.90;;;16.30;99.90;;;;;;5089942;28;20784;-72
2022/07/30 02:53:49;;;;;;;3.67;3.13;;;16.30;99.90;;;;;;5090880;28;20535;-73
2022/07/30 02:56:19;;;;;;;5.63;3.80;;;16.50;99.90;;;;;;5089901;28;20496;-72
2022/07/30 02:58:47;;;;;;;3.20;2.90;;;16.90;99.90;;;;;;5090104;28;20806;-72
2022/07/30 03:01:17;;;;;;;6.10;2.90;;;16.60;99.90;;;;;;5090458;28;20445;-73
2022/07/30 03:03:46;;;;;;;4.03;2.90;;;16.50;99.90;;;;;;5090306;28;20453;-72
2022/07/30 03:06:15;;;;;;;3.57;3.27;;;16.60;99.90;;;;;;5090921;28;20519;-73
2022/07/30 03:08:44;;;;;;;2.80;2.50;;;16.60;99.90;;;;;;5089771;28;20473;-72
2022/07/30 03:11:13;;;;;;;2.90;2.60;;;16.60;99.90;;;;;;5094462;28;20444;-73
2022/07/30 03:13:40;;;;;;;5.50;2.90;;;16.50;99.90;;;;;;5094526;28;20451;-72
2022/07/30 03:16:09;;;;;;;6.10;3.77;;;16.40;99.90;;;;;;5097252;28;20591;-72
2022/07/30 03:18:39;;;;;;;5.80;2.97;;;16.30;99.90;;;;;;5101883;28;20473;-72
2022/07/30 03:21:09;;;;;;;3.63;3.30;;;16.30;99.90;;;;;;5101989;28;20441;-72
2022/07/30 03:23:37;;;;;;;4.47;3.40;;;16.30;99.90;;;;;;5100509;28;20477;-74
2022/07/30 03:26:07;;;;;;;3.23;2.80;;;;;;;;;;5098198;28;20467;-72
2022/07/30 03:28:36;;;;;;;3.50;3.20;;;;;;;;;;5095671;28;20479;-74
2022/07/30 03:31:04;;;;;;;2.87;2.53;;;;;;;;;;5095390;28;20441;-72
2022/07/30 03:33:32;;;;;;;4.10;3.43;;;;;;;;;;5094866;28;20463;-72
2022/07/30 03:36:00;;;;;;;6.53;3.00;;;;;;;;;;5094590;28;20836;-73
2022/07/30 03:38:27;;;;;;;3.63;3.33;;;;;;;;;;5093890;28;20911;-74
2022/07/30 03:40:55;;;;;;;5.97;3.17;;;;;;;;;;5093670;28;20743;-72
2022/07/30 03:43:24;;;;;;;3.27;3.00;;;;;;;;;;5094666;28;20536;-72
2022/07/30 03:45:51;;;;;;;3.47;2.73;;;;;;;;;;5094319;28;20444;-72
2022/07/30 03:48:19;;;;;;;3.40;3.10;;;;;;;;;;5093440;28;20484;-73
2022/07/30 03:50:47;;;;;;;3.43;3.10;;;;;;;;;;5093274;28;20452;-72
2022/07/30 03:53:14;;;;;;;4.30;3.70;;;;;;;;;;5093188;28;20462;-73
2022/07/30 03:55:43;;;;;;;3.33;3.13;;;;;;;;;;5087087;28;20475;-72
2022/07/30 03:58:10;;;;;;;3.60;3.30;;;;;;;;;;5093599;28;20808;-72
2022/07/30 04:00:39;;;;;;;2.80;2.50;;;;;;;;;;5093225;28;20514;-72
2022/07/30 04:03:06;;;;;;;3.10;2.80;;;;;;;;;;5093642;28;20456;-73
2022/07/30 04:05:34;;;;;;;3.60;2.90;;;;;;;;;;5100035;28;20946;-73
2022/07/30 04:08:01;;;;;;;4.23;3.80;;;;;;;;;;5093539;28;20509;-72
2022/07/30 04:10:28;;;;;;;2.97;2.60;;;;;;;;;;5093415;28;20447;-73
2022/07/30 04:12:56;;;;;;;3.33;3.03;;;;;;;;;;5092828;28;20820;-72
2022/07/30 04:15:23;;;;;;;4.60;3.20;;;;;;;;;;5082148;28;20456;-73
2022/07/30 04:17:54;;;;;;;3.10;2.70;;;;;;;;;;5092994;28;20514;-73
2022/07/30 04:20:24;;;;;;;5.07;3.47;;;;;;;;;;5093006;28;20458;-71
2022/07/30 04:22:52;;;;;;;3.57;3.20;;;;;;;;;;5091781;28;20963;-72
2022/07/30 04:25:20;;;;;;;4.00;3.53;;;;;;;;;;5086610;28;20486;-73
2022/07/30 04:27:47;;;;;;;3.57;3.27;;;;;;;;;;5092988;28;20445;-72
2022/07/30 04:30:14;;;;;;;4.37;3.97;;;;;;;;;;5092894;28;20483;-72
2022/07/30 04:32:42;;;;;;;3.83;3.33;;;;;;;;;;5093039;28;20459;-73
2022/07/30 04:35:10;;;;;;;5.00;3.37;;;;;;;;;;5093302;28;20959;-72
2022/07/30 04:37:38;;;;;;;4.20;2.83;;;;;;;;;;5057432;28;20437;-72
2022/07/30 04:40:05;;;;;;;3.40;3.13;;;;;;;;;;5097410;28;20519;-71
2022/07/30 04:42:33;;;;;;;4.20;3.80;;;;;;;;;;5105796;28;20524;-72
2022/07/30 04:45:00;;;;;;;3.60;3.30;;;;;;;;;;5093909;28;20456;-72
2022/07/30 04:47:27;;;;;;;4.00;3.60;;;;;;;;;;5094531;28;20463;-72
2022/07/30 04:49:56;;;;;;;5.27;2.83;;;;;;;;;;5108269;28;20521;-73
2022/07/30 04:52:25;;;;;;;3.93;2.90;;;;;;;;;;5111326;28;20463;-72
2022/07/30 04:54:55;;;;;;;3.40;3.10;;;;;;;;;;5105227;28;20476;-72
2022/07/30 04:57:22;;;;;;;4.53;3.67;;;;;;;;;;5080666;28;20442;-72
2022/07/30 04:59:49;;;;;;;3.10;2.70;;;;;;;;;;5091761;28;20444;-71
2022/07/30 05:02:16;;;;;;;5.20;3.30;;;;;;;;;;5093146;28;20799;-72
2022/07/30 05:04:44;;;;;;;4.20;3.80;;;;;;;;;;5092148;28;20555;-72
2022/07/30 05:07:13;;;;;;;3.63;3.33;;;;;;;;;;5099829;28;20452;-73
2022/07/30 05:09:42;;;;;;;3.90;3.60;;;;;;;;;;5091607;28;20480;-72
2022/07/30 05:12:09;;;;;;;3.47;3.10;;;;;;;;;;5092376;28;20449;-73
2022/07/30 05:14:36;;;;;;;3.20;2.97;;;;;;;;;;5092188;28;20441;-73
2022/07/30 05:17:04;;;;;;;3.23;2.93;;;;;;;;;;5092716;28;20451;-73
2022/07/30 05:19:31;;;;;;;3.40;3.10;;;;;;;;;;5092337;28;20460;-72
2022/07/30 05:21:58;;;;;;;3.40;3.00;;;;;;;;;;5091315;28;20455;-71
2022/07/30 05:24:25;;;;;;;4.37;3.30;;;;;;;;;;5090774;28;20459;-71
2022/07/30 05:26:54;;;;;;;5.03;2.80;;;;;;;;;;5088874;28;20507;-73
2022/07/30 05:29:21;;;;;;;5.30;3.47;;;;;;;;;;5092350;28;20490;-71
2022/07/30 05:31:49;;;;;;;4.03;3.63;;;;;;;;;;5091521;28;21018;-72
2022/07/30 05:34:16;;;;;;;3.50;3.20;;;;;;;;;;5091043;28;20480;-69
2022/07/30 05:36:44;;;;;;;3.93;3.60;;;;;;;;;;5094830;28;20449;-69
2022/07/30 05:39:11;;;;;;;3.87;2.87;;;;;;;;;;5091416;28;20455;-69
2022/07/30 05:41:38;;;;;;;4.33;3.50;;;;;;;;;;5091522;28;20879;-69
2022/07/30 05:44:06;;;;;;;4.73;3.30;;;;;;;;;;5089475;28;20448;-71
2022/07/30 05:46:34;;;;;;;4.83;3.27;;;;;;;;;;5092122;28;20515;-73
2022/07/30 05:49:01;;;;;;;3.53;3.23;;;;;;;;;;5091659;28;20583;-77
2022/07/30 05:51:28;;;;;;;3.20;2.83;;;;;;;;;;5088571;28;20445;-71
2022/07/30 05:53:55;;;;;;;3.10;2.80;;;;;;;;;;5088534;28;20448;-73
2022/07/30 05:56:22;;;;;;;5.57;3.00;;;;;;;;;;5086089;28;20448;-71
2022/07/30 05:58:49;;;;;;;7.83;3.60;;;;;;;;;;5085327;28;20456;-72
2022/07/30 06:01:18;;;;;;;3.83;3.50;;;;;;;;;;5087771;28;20470;-72
2022/07/30 06:03:45;;;;;;;2.80;2.60;;;;;;;;;;5090908;28;20451;-73
2022/07/30 06:06:12;;;;;;;5.60;3.53;;;;;;;;;;5103711;28;20451;-74
2022/07/30 06:08:39;;;;;;;3.17;2.87;;;;;;;;;;5104269;28;20448;-75
2022/07/30 06:11:07;;;;;;;5.63;3.37;;;;;;;;;;5092039;28;20455;-75
2022/07/30 06:13:35;;;;;;;6.63;3.27;;;;;;;;;;5091869;28;20449;-70
2022/07/30 06:16:02;;;;;;;4.33;3.43;;;;;;;;;;5091556;28;20444;-74
2022/07/30 06:18:31;;;;;;;4.60;3.00;;;;;;;;;;5092298;28;20445;-74
2022/07/30 06:20:58;;;;;;;4.40;3.17;;;;;;;;;;5090915;28;20448;-73
2022/07/30 06:23:25;;;;;;;5.53;4.87;;;;;;;;;;5091859;28;20567;-72
2022/07/30 06:25:52;;;;;;;4.63;3.00;;;;;;;;;;5090268;28;20457;-69
2022/07/30 06:28:19;;;;;;;3.53;2.90;;;;;;;;;;5091336;28;20851;-74
2022/07/30 06:30:47;;;;;;;3.80;2.90;;;;;;;;;;5091251;28;20516;-71
2022/07/30 06:33:14;;;;;;;8.23;3.60;;;;;;;;;;5091045;28;20444;-69
2022/07/30 06:35:44;;;;;;;4.57;2.97;;;;;;;;;;5093964;28;20479;-76
2022/07/30 06:38:11;;;;;;;7.27;3.23;;;;;;;;;;5081159;28;20437;-74
2022/07/30 06:40:39;;;;;;;3.17;2.77;;;;;;;;;;5090470;28;20818;-71
2022/07/30 06:43:06;;;;;;;3.30;3.00;;;;;;;;;;5090960;28;20455;-72
2022/07/30 06:45:34;;;;;;;4.77;3.33;;;;;;;;;;5093046;28;20440;-73
2022/07/30 06:48:01;;;;;;;3.87;3.13;;;;;;;;;;5095564;28;20506;-73
2022/07/30 06:50:29;;;;;;;7.43;3.20;;;;;;;;;;5095031;28;20979;-73
2022/07/30 06:52:57;;;;;;;6.30;2.73;;;;;;;;;;5094501;28;20453;-74
2022/07/30 06:55:25;;;;;;;3.00;2.73;;;;;;;;;;5094505;28;20624;-74
2022/07/30 06:57:52;;;;;;;3.37;2.87;;;;;;;;;;5094418;28;20475;-72
2022/07/30 07:00:19;;;;;;;4.90;3.30;;;;;;;;;;5095262;28;20459;-73
2022/07/30 07:02:46;;;;;;;4.17;3.77;;;;;;;;;;5094792;28;20491;-72
2022/07/30 07:05:14;;;;;;;3.40;2.63;;;;;;;;;;5098177;28;20452;-74
2022/07/30 07:07:41;;;;;;;3.10;2.83;;;;;;;;;;5102748;28;20559;-74
2022/07/30 07:10:10;;;;;;;3.40;3.10;;;;;;;;;;5095091;28;20476;-74
2022/07/30 07:12:37;;;;;;;3.20;2.77;;;;;;;;;;5094647;28;20816;-75
2022/07/30 07:15:05;;;;;;;8.50;3.40;;;;;;;;;;5094987;28;20440;-75
2022/07/30 07:17:32;;;;;;;3.17;2.87;;;;;;;;;;5095041;28;20536;-72
2022/07/30 07:19:59;;;;;;;4.10;3.10;;;;;;;;;;5094370;28;20448;-74
2022/07/30 07:22:26;;;;;;;3.10;2.80;;;;;;;;;;5094712;28;20453;-72
2022/07/30 07:24:53;;;;;;;3.33;2.50;;;;;;;;;;5093531;28;20535;-73
2022/07/30 07:27:22;;;;;;;3.53;2.70;;;;;;;;;;5094886;28;20451;-72
2022/07/30 07:29:49;;;;;;;4.07;3.10;;;;;;;;;;5093997;28;20477;-73
2022/07/30 07:32:16;;;;;;;2.73;2.53;;;;;;;;;;5093307;28;20507;-73
2022/07/30 07:34:43;;;;;;;3.20;2.90;;;;;;;;;;5093387;28;20465;-73
2022/07/30 07:37:11;;;;;;;3.00;2.70;;;;;;;;;;5097969;28;20976;-72
2022/07/30 07:39:38;;;;;;;3.10;2.80;;;;;;;;;;5093449;28;20457;-73
2022/07/30 07:42:05;;;;;;;2.93;2.63;;;;;;;;;;5094516;28;20451;-72
2022/07/30 07:44:34;;;;;;;2.53;2.27;;;;;;;;;;5093801;28;20482;-74
2022/07/30 07:47:01;;;;;;;2.80;2.50;;;;;;;;;;5094107;28;20927;-74
2022/07/30 07:49:28;;;;;;;3.60;3.10;;;;;;;;;;5094241;28;20584;-73
2022/07/30 07:51:55;;;;;;;3.43;2.60;;;;;;;;;;5093411;28;20552;-72
2022/07/30 07:54:22;;;;;;;3.53;3.17;;;;;;;;;;5093367;28;20532;-76
2022/07/30 07:56:50;;;;;;;4.00;2.80;;;;;;;;;;5093967;28;20865;-74
2022/07/30 07:59:18;;;;;;;2.63;2.40;;;;;;;;;;5094544;28;20449;-74
2022/07/30 08:01:46;;;;;;;3.33;2.60;;;;;;;;;;5094003;28;20454;-74
2022/07/30 08:04:13;;;;;;;2.50;2.20;;;;;;;;;;5094063;28;20457;-74
2022/07/30 08:06:40;;;;;;;2.80;2.60;;;;;;;;;;5093181;28;20449;-75
2022/07/30 08:09:08;;;;;;;2.80;2.60;;;;;;;;;;5093862;28;20471;-74
2022/07/30 08:11:36;;;;;;;3.20;2.90;;;;;;;;;;5093803;28;20455;-69
2022/07/30 08:14:03;;;;;;;3.03;2.47;;;;;;;;;;5093931;28;20528;-75
2022/07/30 08:16:30;;;;;;;2.90;2.53;;;;;;;;;;5094391;28;20507;-74
2022/07/30 08:18:59;;;;;;;2.33;2.13;;;;;;;;;;5093850;28;20527;-75
2022/07/30 08:21:26;;;;;;;3.00;2.43;;;;;;;;;;5093745;28;20459;-76
2022/07/30 08:23:53;;;;;;;2.13;1.93;;;;;;;;;;5093305;28;20536;-75
2022/07/30 08:26:20;;;;;;;6.77;2.80;;;;;;;;;;5093320;28;20921;-76
2022/07/30 08:28:47;;;;;;;3.00;2.40;;;;;;;;;;5093872;28;20550;-76
2022/07/30 08:31:14;;;;;;;2.33;2.13;;;;;;;;;;5094641;28;20491;-76
2022/07/30 08:33:42;;;;;;;3.57;1.97;;;;;;;;;;5096549;28;20483;-75
2022/07/30 08:36:10;;;;;;;3.03;2.50;;;;;;;;;;5109296;28;20437;-75
2022/07/30 08:38:38;;;;;;;2.70;2.50;;;;;;;;;;5108951;28;20441;-73
2022/07/30 08:41:06;;;;;;;3.10;2.80;;;;;;;;;;5109852;28;20445;-72
2022/07/30 08:43:34;;;;;;;2.70;2.43;;;;;;;;;;5103664;28;20443;-74
2022/07/30 08:46:02;;;;;;;3.90;2.67;;;;;;;;;;5102839;28;20499;-73
2022/07/30 08:48:30;;;;;;;2.50;2.30;;;;;;;;;;5101158;28;20453;-74
2022/07/30 08:50:57;;;;;;;2.20;2.07;;;;;;;;;;5099199;28;20482;-73
2022/07/30 08:53:26;;;;;;;1.90;1.80;;;;;;;;;;5096310;28;20528;-73
2022/07/30 08:55:53;;;;;;;2.97;2.50;;;;;;;;;;5095426;28;20456;-73
2022/07/30 08:58:26;;;;;;;2.90;2.60;;;;;;;;;;5098809;28;20472;-73
2022/07/30 09:00:53;;;;;;;2.90;2.40;;;;;;;;;;5100630;28;20461;-73
2022/07/30 09:03:21;;;;;;;2.30;2.10;;;;;;;;;;5104700;28;20920;-74
2022/07/30 09:05:48;;;;;;;5.27;2.17;;;;;;;;;;5113414;28;20520;-73
2022/07/30 09:08:15;;;;;;;4.87;2.23;;;;;;;;;;5104056;28;20529;-75
2022/07/30 09:10:44;;;;;;;4.23;2.70;;;;;;;;;;5092917;28;20567;-73
2022/07/30 09:13:23;;;;;;;2.03;1.73;;;;;;;;;;5093303;28;20920;-73
2022/07/30 09:15:50;;;;;;;2.67;2.47;;;;;;;;;;5092090;28;20653;-73
2022/07/30 09:18:26;;;;;;;2.40;2.10;;;;;;;;;;5092878;28;20471;-72
2022/07/30 09:20:53;;;;;;;2.60;2.40;;;;;;;;;;5092168;28;20798;-75
2022/07/30 09:23:20;;;;;;;2.43;2.13;;;;;;;;;;5092636;28;20453;-75
2022/07/30 09:25:49;;;;;;;7.10;2.30;;;;;;;;;;5091947;28;20472;-76
2022/07/30 09:28:17;;;;;;;2.97;2.37;;;;;;;;;;5092809;28;20441;-73
2022/07/30 09:30:45;;;;;;;4.70;2.20;;;;;;;;;;5091895;28;20847;-74
2022/07/30 09:33:12;;;;;;;2.60;2.40;;;;;;;;;;5092246;28;20453;-72
2022/07/30 09:35:40;;;;;;;3.00;2.00;;;;;;;;;;5095287;28;20575;-74
2022/07/30 09:38:07;;;;;;;2.10;1.90;;;;;;;;;;5092542;28;20506;-74
2022/07/30 09:40:35;;;;;;;2.17;2.07;;;;;;;;;;5092079;28;20808;-74
2022/07/30 09:43:04;;;;;;;2.60;2.40;;;;;;;;;;5092011;28;20932;-75
2022/07/30 09:45:31;;;;;;;2.00;1.90;;;;;;;;;;5091743;28;20449;-73
2022/07/30 09:47:58;;;;;;;1.73;1.63;;;;;;;;;;5091626;28;20852;-72
2022/07/30 09:50:26;;;;;;;3.23;2.00;;;;;;;;;;5091603;28;20484;-74
2022/07/30 09:52:54;;;;;;;2.60;2.03;;;;;;;;;;5091619;28;20449;-75
2022/07/30 09:55:30;;;;;;;2.07;1.77;;;;;;;;;;5091500;28;21020;-75
2022/07/30 09:57:58;;;;;;;1.73;1.63;;;;;;;;;;5091964;28;20463;-78
2022/07/30 10:00:27;;;;;;;2.50;1.80;;;;;;;;;;5092226;28;21280;-78
2022/07/30 10:02:55;;;;;;;2.27;2.07;;;;;;;;;;5093310;28;21126;-78
2022/07/30 10:05:23;;;;;;;3.10;2.30;;;;;;;;;;5096625;28;20443;-78
2022/07/30 10:07:51;;;;;;;3.33;2.50;;;;;;;;;;5099031;28;20444;-75
2022/07/30 10:10:19;;;;;;;2.47;2.00;;;;;;;;;;5091392;28;20484;-74
2022/07/30 10:12:46;;;;;;;3.03;1.77;;;;;;;;;;5091460;28;20445;-74
2022/07/30 10:15:14;;;;;;;2.00;1.73;;;;;;;;;;5091392;28;20474;-74
2022/07/30 10:17:42;;;;;;;2.17;1.87;;;;;;;;;;5090774;28;20448;-76
2022/07/30 10:20:10;;;;;;;2.30;2.10;;;;;;;;;;5090726;28;20455;-73
2022/07/30 10:22:38;;;;;;;2.20;2.00;;;;;;;;;;5091054;28;20437;-73
2022/07/30 10:25:05;;;;;;;2.20;2.00;;;;;;;;;;5091249;28;20531;-72
2022/07/30 10:27:33;;;;;;;3.00;2.00;;;;;;;;;;5091944;28;20527;-76
2022/07/30 10:30:00;;;;;;;1.70;1.60;;;;;;;;;;5091919;28;20440;-76
2022/07/30 10:32:28;;;;;;;1.93;1.40;;;;;;;;;;5091753;28;20506;-76
2022/07/30 10:34:56;;;;;;;1.80;1.70;;;;;;;;;;5090931;28;20547;-75
2022/07/30 10:37:26;;;;;;;1.70;1.60;;;;;;;;;;5091761;28;20445;-74
2022/07/30 10:39:55;;;;;;;2.13;1.80;;;;;;;;;;5090142;28;20445;-69
2022/07/30 10:42:28;;;;;;;1.77;1.67;;;;;;;;;;5090742;28;20821;-70
2022/07/30 10:45:21;;;;;;;1.77;1.63;;;;;;;;;;5102517;28;20826;-70
2022/07/30 10:47:49;;;;;;;2.57;1.87;;;;;;;;;;5073404;28;20845;-74
2022/07/30 10:50:18;;;;;;;2.13;2.00;;;;;;;;;;5091373;28;20555;-75
2022/07/30 10:52:49;;;;;;;1.97;1.77;;;;;;;;;;5089863;28;20519;-76
2022/07/30 10:55:17;;;;;;;1.60;1.50;;;;;;;;;;5090811;28;20519;-76
2022/07/30 10:58:01;;;;;;;2.07;1.87;;;;;;;;;;5090431;28;20437;-75
2022/07/30 11:00:29;;;;;;;2.13;1.93;;;;;;;;;;5091176;28;20814;-75
2022/07/30 11:03:12;;;;;;;2.73;1.97;;;;;;;;;;5090736;28;20494;-75
2022/07/30 11:05:40;;;;;;;2.70;1.80;;;;;;;;;;5091189;28;20620;-76
2022/07/30 11:08:26;;;;;;;1.83;1.50;;;;;;;;;;5096890;28;20527;-76
2022/07/30 11:10:53;;;;;;;1.80;1.70;;;;;;;;;;5084502;28;20472;-75
2022/07/30 11:13:41;;;;;;;1.97;1.70;;;;;;;;;;5087158;28;20535;-78
2022/07/30 11:16:08;;;;;;;1.83;1.40;;;;;;;;;;5091270;28;20497;-77
2022/07/30 11:18:55;;;;;;;4.13;2.00;;;;;;;;;;5090706;28;20972;-74
2022/07/30 11:21:24;;;;;;;1.50;1.40;;;;;;;;;;5091246;28;20444;-77
2022/07/30 11:23:52;;;;;;;2.00;1.70;;;;;;;;;;5090416;28;20448;-77
2022/07/30 11:26:37;;;;;;;1.53;1.43;;;;;;;;;;5091535;28;20483;-78
2022/07/30 11:29:04;;;;;;;1.57;1.47;;;;;;;;;;5090363;28;20451;-77
2022/07/30 11:31:33;;;;;;;2.00;1.80;;;;;;;;;;5092698;28;21021;-78
2022/07/30 11:34:25;;;;;;;1.93;1.70;;;16.50;99.90;;;;;;5088453;28;20484;-76
2022/07/30 11:37:16;;;;;;;2.50;1.57;;;26.10;1.00;;;;;;5094713;28;20443;-72
2022/07/30 11:40:09;;;;;;;2.00;1.80;;;25.70;1.00;;;;;;5081706;28;20448;-73
2022/07/30 11:42:38;;;;;;;2.07;1.97;;;25.70;1.00;;;;;;5090490;28;20447;-73
2022/07/30 11:45:28;;;;;;;1.73;1.60;;;26.10;1.00;;;;;;5090563;28;20449;-70
2022/07/30 11:47:58;;;;;;;1.90;1.80;;;26.30;1.00;;;;;;5091072;28;20536;-74
2022/07/30 11:50:28;;;;;;;2.00;1.80;;;26.50;1.00;;;;;;5091292;28;20448;-76
2022/07/30 11:52:57;;;;;;;2.00;1.90;;;26.70;1.00;;;;;;5090425;28;20742;-78
2022/07/30 11:55:26;;;;;;;3.40;2.10;;;26.70;1.00;;;;;;5091213;28;20453;-78
2022/07/30 11:57:54;;;;;;;2.77;2.40;;;26.40;1.00;;;;;;5090142;28;20455;-78
2022/07/30 12:00:21;;;;;;;2.67;2.17;;;26.60;1.00;;;;;;5087398;28;20444;-77
2022/07/30 12:02:48;;;;;;;4.83;2.40;;;26.40;1.00;;;;;;5091511;28;20540;-78
2022/07/30 12:05:15;;;;;;;1.73;1.63;;;26.70;1.00;;;;;;5095472;28;20501;-79
2022/07/30 12:07:42;;;;;;;1.77;1.67;;;26.60;1.00;;;;;;5097621;28;20488;-73
2022/07/30 12:10:15;;;;;;;2.20;2.00;;;26.80;1.00;;;;;;5088463;28;20780;-72
2022/07/30 12:12:42;;;;;;;1.33;1.20;;;27.20;1.00;;;;;;5081084;28;20845;-70
2022/07/30 12:15:10;;;;;;;1.83;1.57;;;27.30;1.00;;;;;;5090594;28;20456;-70
2022/07/30 12:17:41;;;;;;;1.53;1.43;;;27.20;1.00;;;;;;5092828;28;20443;-73
2022/07/30 12:20:15;;;;;;;1.97;1.73;;;27.50;1.00;;;;;;5084373;28;20445;-72
2022/07/30 12:22:43;;;;;;;1.50;1.40;;;;;;;;;;5092777;28;20498;-72
2022/07/30 12:25:10;;;;;;;1.93;1.43;;;;;;;;;;5093297;28;20452;-70
2022/07/30 12:27:39;;;;;;;4.10;1.97;;;;;;;;;;5093296;28;20444;-73
2022/07/30 12:30:07;;;;;;;1.80;1.70;;;;;;;;;;5097100;28;20532;-72
2022/07/30 12:32:35;;;;;;;1.57;1.47;;;;;;;;;;5099464;28;20488;-70
2022/07/30 12:35:02;;;;;;;1.93;1.70;;;;;;;;;;5093915;28;20479;-75
2022/07/30 12:37:29;;;;;;;1.50;1.40;;;;;;;;;;5094422;28;20445;-75
2022/07/30 12:40:10;;;;;;;1.37;1.27;;;;;;;;;;5093484;28;20453;-75
2022/07/30 12:42:49;;;;;;;1.73;1.63;;;;;;;;;;5092297;28;20440;-75
2022/07/30 12:45:26;;;;;;;1.70;1.50;;;;;;;;;;5093104;28;20452;-74
2022/07/30 12:47:53;;;;;;;1.70;1.50;;;;;;;;;;5093761;28;20503;-75
2022/07/30 12:50:20;;;;;;;1.53;1.43;;;;;;;;;;5094338;28;20455;-75
2022/07/30 12:52:50;;;;;;;1.60;1.47;;;;;;;;;;5094032;28;20994;-75
2022/07/30 12:55:18;;;;;;;1.67;1.57;;;;;;;;;;5093912;28;20923;-74
2022/07/30 12:58:00;;;;;;;3.33;1.80;;;;;;;;;;5094140;28;20445;-75
2022/07/30 13:00:28;;;;;;;2.00;1.70;;;;;;;;;;5097602;28;20840;-75
2022/07/30 13:02:55;;;;;;;2.50;1.80;;;;;;;;;;5098854;28;20463;-75
2022/07/30 13:05:38;;;;;;;1.60;1.50;;;;;;;;;;5110977;28;20474;-74
2022/07/30 13:08:05;;;;;;;1.50;1.40;;;;;;;;;;5114648;28;20443;-71
2022/07/30 13:10:32;;;;;;;3.70;1.97;;;;;;;;;;5100560;28;20449;-75
2022/07/30 13:13:02;;;;;;;2.20;1.87;;;;;;;;;;5095120;28;20492;-75
2022/07/30 13:15:29;;;;;;;2.00;1.70;;;;;;;;;;5096266;28;20471;-75
2022/07/30 13:17:56;;;;;;;1.40;1.30;;;;;;;;;;5097520;28;20456;-73
2022/07/30 13:20:23;;;;;;;1.50;1.40;;;;;;;;;;5103490;28;20443;-75
2022/07/30 13:22:50;;;;;;;2.03;1.70;;;;;;;;;;5101887;28;20453;-76
2022/07/30 13:25:17;;;;;;;1.93;1.83;;;;;;;;;;5097785;28;20480;-74
2022/07/30 13:27:45;;;;;;;2.37;1.57;;;;;;;;;;5095002;28;20924;-76
2022/07/30 13:30:14;;;;;;;1.70;1.60;;;;;;;;;;5095281;28;20458;-75
2022/07/30 13:32:41;;;;;;;2.13;1.83;;;;;;;;;;5091717;28;20876;-75
2022/07/30 13:35:08;;;;;;;1.87;1.73;;;;;;;;;;5095053;28;20474;-76
2022/07/30 13:37:35;;;;;;;2.60;1.50;;;;;;;;;;5092574;27;20453;-74
2022/07/30 13:40:03;;;;;;;1.57;1.47;;;;;;;;;;5092597;28;20448;-75
2022/07/30 13:42:30;;;;;;;3.57;1.80;;;;;;;;;;5093172;28;20459;-76
2022/07/30 13:44:57;;;;;;;2.07;1.80;;;;;;;;;;5091976;28;20440;-76
2022/07/30 13:47:26;;;;;;;2.70;2.03;;;;;;;;;;5093343;28;20618;-76
2022/07/30 13:49:53;;;;;;;4.03;1.80;;;;;;;;;;5091856;28;20973;-75
2022/07/30 13:52:20;;;;;;;5.80;4.10;;;;;;;;;;5092860;28;20480;-75
2022/07/30 13:54:50;;;;;;;2.40;2.20;;;;;;;;;;5091994;28;20441;-75
2022/07/30 13:57:17;;;;;;;1.80;1.70;;;;;;;;;;5092844;28;20448;-75
2022/07/30 13:59:44;;;;;;;2.17;1.97;;;;;;;;;;5092156;28;20802;-75
2022/07/30 14:02:11;;;;;;;2.10;1.90;;;;;;;;;;5092231;28;20463;-75
2022/07/30 14:04:40;;;;;;;2.13;1.83;;;;;;;;;;5091753;28;20451;-75
2022/07/30 14:07:07;;;;;;;4.50;2.00;;;;;;;;;;5104286;28;20440;-75
2022/07/30 14:09:34;;;;;;;3.00;1.60;;;;;;;;;;5092379;28;20931;-74
2022/07/30 14:12:01;;;;;;;1.90;1.80;;;;;;;;;;5092063;28;20559;-75
2022/07/30 14:14:28;;;;;;;4.60;2.63;;;;;;;;;;5091267;28;20474;-75
2022/07/30 14:16:55;;;;;;;2.20;1.97;;;;;;;;;;5090895;28;20455;-77
2022/07/30 14:19:22;;;;;;;1.73;1.63;;;;;;;;;;5092160;28;20538;-76
2022/07/30 14:21:51;;;;;;;1.70;1.60;;;;;;;;;;5091208;28;20457;-77
2022/07/30 14:24:19;;;;;;;2.13;1.70;;;;;;;;;;5091316;28;20519;-75
2022/07/30 14:26:46;;;;;;;1.53;1.43;;;;;;;;;;5090846;28;20942;-75
2022/07/30 14:29:13;;;;;;;1.83;1.73;;;;;;;;;;5091483;28;20535;-75
2022/07/30 14:31:40;;;;;;;1.80;1.70;;;;;;;;;;5091037;28;20475;-75
2022/07/30 14:34:07;;;;;;;1.98;1.60;;;;;;;;;;5090890;28;20241;-75
2022/07/30 14:36:36;;;;;;;2.20;2.00;;;;;;;;;;5094889;28;20641;-76
2022/07/30 14:39:05;;;;;;;2.40;1.85;;;;;;;;;;5091713;28;20240;-76
2022/07/30 14:41:33;;;;;;;2.45;2.00;;;;;;;;;;5091890;28;20363;-76